Daily Tabular Data
[Select Refresh to Update]


4/19/18
Time         Wind Dir   Wind Spd  Wind Gust     Hum In   Humidity    Temp In       Temp  Raw Barom   Tot Rain Wind Chill Heat Ix In Heat Index  Dew Point  DailyRain   HourRain   RainRate
                            mph        mph          %          %         F         F         in         in         F         F         F         F         in         in      in/hr
12:00am           225          0          1         36         88       73.9       53.0      29.17       4.41       53.0       73.5       58.3       49.5       0.00       0.00      0.000
12:30am           203          0          4         37         89       73.8       53.1      29.18       4.41       53.1       73.5       58.6       49.9       0.00       0.00      0.000
1:00am            244          0          3         37         88       73.6       52.0      29.17       4.41       52.0       73.3       57.3       48.6       0.00       0.00      0.000
1:30am            255          2          4         37         85       73.5       51.8      29.18       4.41       51.8       73.2       56.7       47.4       0.00       0.00      0.000
2:00am            270          2          8         36         81       73.4       51.4      29.17       4.41       51.4       73.0       55.8       45.8       0.00       0.00      0.000
2:30am            292          2          4         36         81       73.3       50.9      29.16       4.41       50.9       72.9       55.3       45.3       0.00       0.00      0.000
3:00am            286          1          5         36         80       73.1       50.6      29.16       4.41       50.6       72.7       54.8       44.7       0.00       0.00      0.000
3:30am            276          0          5         36         83       73.0       51.0      29.16       4.41       51.0       72.6       55.6       46.0       0.00       0.00      0.000
4:00am            276          0          0         36         85       72.8       51.1      29.16       4.41       51.1       72.4       56.0       46.8       0.00       0.00      0.000
4:30am            207          0          2         36         84       72.7       50.9      29.16       4.41       50.9       72.3       55.7       46.2       0.00       0.00      0.000
5:00am            105          0          2         36         85       72.5       51.7      29.17       4.41       51.7       72.1       56.6       47.3       0.00       0.00      0.000
5:30am            242          0          5         36         86       72.4       51.2      29.17       4.41       51.2       72.0       56.3       47.2       0.00       0.00      0.000
6:00am            272          1          2         37         87       72.3       50.1      29.17       4.41       50.1       72.0       55.3       46.4       0.00       0.00      0.000
6:30am            275          0          2         36         87       72.1       49.8      29.18       4.41       49.8       71.7       55.0       46.1       0.00       0.00      0.000
7:00am            275          0          1         36         88       72.0       51.4      29.18       4.41       51.4       71.6       56.7       48.0       0.00       0.00      0.000
7:30am            102          1          3         36         80       71.9       51.9      29.18       4.41       51.9       71.5       56.1       45.9       0.00       0.00      0.000
8:00am             78          0          2         36         75       71.9       53.3      29.19       4.41       53.3       71.5       56.9       45.6       0.00       0.00      0.000
8:30am            273          3          6         38         80       71.0       52.1      29.21       4.41       52.1       70.8       56.3       46.1       0.00       0.00      0.000
9:00am            234          0         10         38         79       71.5       49.3      29.21       4.43       49.3       71.3       53.4       43.1       0.02       0.02      0.050
9:30am            114          6         10         38         84       71.5       49.9      29.20       4.45       47.5       71.3       54.7       45.3       0.04       0.04      0.000
10:00am           101          4         13         38         78       71.5       53.3      29.19       4.45       52.7       71.3       57.3       46.6       0.04       0.04      0.000
10:30am           266          2         10         38         65       71.9       57.2      29.20       4.45       57.2       71.7       59.6       45.6       0.04       0.02      0.000
11:00am           206          2         12         37         67       72.3       56.6      29.20       4.45       56.6       72.0       59.2       45.8       0.04       0.00      0.000
11:30am           221          3         11         37         64       72.4       57.0      29.21       4.45       57.0       72.1       59.3       45.0       0.04       0.00      0.000
12:00pm           294          4         11         37         60       72.6       58.8      29.21       4.45       58.8       72.3       60.6       45.0       0.04       0.00      0.000
12:30pm           221          5         11         37         61       72.8       58.3      29.20       4.45       58.0       72.5       60.2       44.9       0.04       0.00      0.000
1:00pm            252          5         10         37         57       72.9       59.7      29.21       4.45       59.6       72.6       61.2       44.5       0.04       0.00      0.000
1:30pm            267          6         10         37         57       73.0       60.7      29.20       4.45       60.4       72.7       62.2       45.4       0.04       0.00      0.000
2:00pm            289          2         10         36         51       73.2       62.9      29.20       4.45       62.9       72.8       63.8       44.5       0.04       0.00      0.000
2:30pm            148          8          9         36         52       73.3       63.1      29.20       4.45       62.7       72.9       64.1       45.2       0.04       0.00      0.000
3:00pm            263          3         11         36         54       73.4       60.9      29.19       4.45       60.9       73.0       62.1       44.2       0.04       0.00      0.000
3:30pm            256          4         11         36         56       73.6       61.0      29.19       4.45       61.0       73.2       62.4       45.2       0.04       0.00      0.000